Stolt Spray — ZCSQ9 — position and weather

sailwx.info

Track history (hours):
 
Tides and Currents Weather Stations Pressure Air Temp Water Temp Dewpoint Dewpoint Depression Visibility Wind Speed Wind Dir Waves Ship Positions

Stolt Spray

Last reported at 2018-Apr-17 18:59 UTC. Time now 2018-Apr-23 11:47 UTC.
Position N 31°22' E 032°19'.

Length 163 m; draft 9.9 m.

Type: Ship (hazmat cat A). MMSI: 319591000.

Date/timePositionNaut miles runAvg speedWind from/ knotsBaromVisibWave heightAir tempDewpointWater temp
2018-Apr-17 18:59N 31°22' E 032°19'0 0.0
2018-Apr-17 17:37N 31°21' E 032°19'0 0.0
2018-Apr-17 17:28N 31°21' E 032°19'0 0.0
2018-Apr-17 16:56N 31°21' E 032°19'0 0.0
2018-Apr-17 16:26N 31°21' E 032°19'0 0.0
2018-Apr-17 15:56N 31°21' E 032°19'0 0.0
2018-Apr-17 15:27N 31°21' E 032°19'0 0.0
2018-Apr-17 14:42N 31°21' E 032°19'0 0.0
2018-Apr-17 14:30N 31°21' E 032°19'0 0.0
2018-Apr-17 13:58N 31°21' E 032°19'0 0.0
2018-Apr-17 13:27N 31°21' E 032°19'0 0.0
2018-Apr-17 13:00N 31°21' E 032°19'0 0.0
2018-Apr-17 11:48N 31°21' E 032°19'0 0.1
2018-Apr-17 11:30N 31°21' E 032°19'1 1.8
2018-Apr-17 11:00N 31°22' E 032°19'4 7.4
2018-Apr-17 10:30N 31°26' E 032°19'610.7
2018-Apr-17 09:57N 31°30' E 032°14'511.2
2018-Apr-17 09:30N 31°34' E 032°10'510.3
2018-Apr-17 09:00N 31°38' E 032°06'510.7
2018-Apr-17 08:30N 31°41' E 032°02'611.2
2018-Apr-17 08:00N 31°45' E 031°57'510.3
2018-Apr-17 07:30N 31°48' E 031°52'510.3
2018-Apr-17 07:00N 31°50' E 031°47'19 9.9
2018-Apr-17 05:04N 31°53' E 031°24'91 8.9
2018-Apr-16 18:47N 31°15' E 029°47'4 9.1
2018-Apr-16 18:17N 31°10' E 029°48'2 6.7
2018-Apr-16 18:00N 31°08' E 029°49'  
2018-Apr-13 22:45N 35°11' E 017°48'1714.4
2018-Apr-13 21:32N 35°18' E 017°29'228.5
2018-Apr-13 21:28N 35°18' E 017°27'10614.6
2018-Apr-13 14:13N 35°57' E 015°25'412.7
2018-Apr-13 13:54N 35°59' E 015°21'3214.7
2018-Apr-13 11:43N 36°11' E 014°44'211.7
2018-Apr-13 11:30N 36°12' E 014°41'915.8
2018-Apr-13 10:57N 36°15' E 014°31'613.2
2018-Apr-13 10:30N 36°18' E 014°24'815.5
2018-Apr-13 09:58N 36°21' E 014°15'613.7
2018-Apr-13 09:30N 36°23' E 014°08'816.0
2018-Apr-13 09:00N 36°26' E 013°58'814.1
2018-Apr-13 08:28N 36°29' E 013°50'815.3
2018-Apr-13 07:58N 36°32' E 013°41'714.7
2018-Apr-13 07:30N 36°34' E 013°33'915.5
2018-Apr-13 06:55N 36°38' E 013°23'614.5
2018-Apr-13 06:29N 36°41' E 013°15'  
2018-Apr-10 18:28N 36°01' W 005°13'716.1
2018-Apr-10 18:00N 36°03' W 005°21'612.5
2018-Apr-10 17:30N 36°09' W 005°24'1 0.1
2018-Apr-10 02:54N 36°11' W 005°24'3 5.3
2018-Apr-10 02:22N 36°08' W 005°25'0 0.3
2018-Apr-10 01:53N 36°08' W 005°25'0 0.1
2018-Apr-10 01:29N 36°08' W 005°25'0 0.0
2018-Apr-10 00:53N 36°08' W 005°25'0 0.1
2018-Apr-10 00:20N 36°08' W 005°25'0 0.1
2018-Apr-09 23:59N 36°08' W 005°25'0 0.1
2018-Apr-09 23:29N 36°08' W 005°25'0 0.1
2018-Apr-09 22:59N 36°08' W 005°25'0 0.1
2018-Apr-09 22:29N 36°08' W 005°25'0 0.0
2018-Apr-09 21:53N 36°08' W 005°25'0 0.0
2018-Apr-09 21:02N 36°08' W 005°25'0 0.1
2018-Apr-09 20:56N 36°08' W 005°25'0 0.1
2018-Apr-09 20:29N 36°08' W 005°25'0 0.0
2018-Apr-09 19:53N 36°08' W 005°25'0 0.0
2018-Apr-09 19:11N 36°08' W 005°25'2 1.6
2018-Apr-09 17:52N 36°06' W 005°23'411.4
2018-Apr-09 17:30N 36°02' W 005°21'714.0
2018-Apr-09 17:00N 35°58' W 005°28'28612.3
2018-Apr-08 17:39N 38°55' W 010°11'314.9
2018-Apr-08 17:29N 38°57' W 010°12'814.6
2018-Apr-08 16:55N 39°05' W 010°12'614.7
2018-Apr-08 16:30N 39°12' W 010°12'  
Track history (hours):
 
Tides and Currents Weather Stations Pressure Air Temp Water Temp Dewpoint Dewpoint Depression Visibility Wind Speed Wind Dir Waves Ship Positions

Stolt Spray

Last reported at 2018-Apr-17 18:59 UTC. Time now 2018-Apr-23 11:47 UTC.
Position N 31°22' E 032°19'.

Length 163 m; draft 9.9 m.

Type: Ship (hazmat cat A). MMSI: 319591000.

Date/timePositionNaut miles runAvg speedWind from/ knotsBaromVisibWave heightAir tempDewpointWater temp
2018-Apr-17 18:59N 31°22' E 032°19'0 0.0
2018-Apr-17 17:37N 31°21' E 032°19'0 0.0
2018-Apr-17 17:28N 31°21' E 032°19'0 0.0
2018-Apr-17 16:56N 31°21' E 032°19'0 0.0
2018-Apr-17 16:26N 31°21' E 032°19'0 0.0
2018-Apr-17 15:56N 31°21' E 032°19'0 0.0
2018-Apr-17 15:27N 31°21' E 032°19'0 0.0
2018-Apr-17 14:42N 31°21' E 032°19'0 0.0
2018-Apr-17 14:30N 31°21' E 032°19'0 0.0
2018-Apr-17 13:58N 31°21' E 032°19'0 0.0
2018-Apr-17 13:27N 31°21' E 032°19'0 0.0
2018-Apr-17 13:00N 31°21' E 032°19'0 0.0
2018-Apr-17 11:48N 31°21' E 032°19'0 0.1
2018-Apr-17 11:30N 31°21' E 032°19'1 1.8
2018-Apr-17 11:00N 31°22' E 032°19'4 7.4
2018-Apr-17 10:30N 31°26' E 032°19'610.7
2018-Apr-17 09:57N 31°30' E 032°14'511.2
2018-Apr-17 09:30N 31°34' E 032°10'510.3
2018-Apr-17 09:00N 31°38' E 032°06'510.7
2018-Apr-17 08:30N 31°41' E 032°02'611.2
2018-Apr-17 08:00N 31°45' E 031°57'510.3
2018-Apr-17 07:30N 31°48' E 031°52'510.3
2018-Apr-17 07:00N 31°50' E 031°47'19 9.9
2018-Apr-17 05:04N 31°53' E 031°24'91 8.9
2018-Apr-16 18:47N 31°15' E 029°47'4 9.1
2018-Apr-16 18:17N 31°10' E 029°48'2 6.7
2018-Apr-16 18:00N 31°08' E 029°49'  
2018-Apr-13 22:45N 35°11' E 017°48'1714.4
2018-Apr-13 21:32N 35°18' E 017°29'228.5
2018-Apr-13 21:28N 35°18' E 017°27'10614.6
2018-Apr-13 14:13N 35°57' E 015°25'412.7
2018-Apr-13 13:54N 35°59' E 015°21'3214.7
2018-Apr-13 11:43N 36°11' E 014°44'211.7
2018-Apr-13 11:30N 36°12' E 014°41'915.8
2018-Apr-13 10:57N 36°15' E 014°31'613.2
2018-Apr-13 10:30N 36°18' E 014°24'815.5
2018-Apr-13 09:58N 36°21' E 014°15'613.7
2018-Apr-13 09:30N 36°23' E 014°08'816.0
2018-Apr-13 09:00N 36°26' E 013°58'814.1
2018-Apr-13 08:28N 36°29' E 013°50'815.3
2018-Apr-13 07:58N 36°32' E 013°41'714.7
2018-Apr-13 07:30N 36°34' E 013°33'915.5
2018-Apr-13 06:55N 36°38' E 013°23'614.5
2018-Apr-13 06:29N 36°41' E 013°15'  
2018-Apr-10 18:28N 36°01' W 005°13'716.1
2018-Apr-10 18:00N 36°03' W 005°21'612.5
2018-Apr-10 17:30N 36°09' W 005°24'1 0.1
2018-Apr-10 02:54N 36°11' W 005°24'3 5.3
2018-Apr-10 02:22N 36°08' W 005°25'0 0.3
2018-Apr-10 01:53N 36°08' W 005°25'0 0.1
2018-Apr-10 01:29N 36°08' W 005°25'0 0.0
2018-Apr-10 00:53N 36°08' W 005°25'0 0.1
2018-Apr-10 00:20N 36°08' W 005°25'0 0.1
2018-Apr-09 23:59N 36°08' W 005°25'0 0.1
2018-Apr-09 23:29N 36°08' W 005°25'0 0.1
2018-Apr-09 22:59N 36°08' W 005°25'0 0.1
2018-Apr-09 22:29N 36°08' W 005°25'0 0.0
2018-Apr-09 21:53N 36°08' W 005°25'0 0.0
2018-Apr-09 21:02N 36°08' W 005°25'0 0.1
2018-Apr-09 20:56N 36°08' W 005°25'0 0.1
2018-Apr-09 20:29N 36°08' W 005°25'0 0.0
2018-Apr-09 19:53N 36°08' W 005°25'0 0.0
2018-Apr-09 19:11N 36°08' W 005°25'2 1.6
2018-Apr-09 17:52N 36°06' W 005°23'411.4
2018-Apr-09 17:30N 36°02' W 005°21'714.0
2018-Apr-09 17:00N 35°58' W 005°28'28612.3
2018-Apr-08 17:39N 38°55' W 010°11'314.9
2018-Apr-08 17:29N 38°57' W 010°12'814.6
2018-Apr-08 16:55N 39°05' W 010°12'614.7
2018-Apr-08 16:30N 39°12' W 010°12'  

Dump ship's entire track history